0PN3 weather

Wyeth-Ayerst Nr Heliport
Collegeville, Pennsylvania, United States

Public forecast

Using degrees Fahrenheit for public forecast. Weather courtesy of forecast.io.

METAR (pilot weather report)

Closest report is Heritage Field, 6.5 nm (12.0 km) NW. Retrieved 2019/09/22 05:54 UTC (50 minutes ago):

KPTW 220554Z AUTO 00000KT 8SM CLR 14/14 A3021 RMK AO2 SLP225 T01390139 10194 20139 58002

TAF (pilot weather forecast)

Closest forecast is Philadelphia International Airport, 20.0 nm (37.1 km) SSE. Retrieved 2019/09/22 06:30 UTC (14 minutes ago):

TAF KPHL 220521Z 2206/2312 VRB03KT P6SM SKC TEMPO 2209/2212 5SM BR FM221200 VRB03KT P6SM FEW060 FM221400 19004KT P6SM FEW050 FM221600 19007KT P6SM FEW050 FM222000 20008KT P6SM FEW250